Time;durP1;ratioP1;P1;durP2;ratioP2;P2;SDS_P1;SDS_P2;PMS_P1;PMS_P2;Temp;Humidity;BMP_temperature;BMP_pressure;BME280_temperature;BME280_humidity;BME280_pressure;Samples;Min_cycle;Max_cycle;Signal;HPM_P1;HPM_P2
2021/01/20 00:01:57;;;;;;;7.10;4.30;;;15.20;58.20;;;;;;6308392;22;19995;-77
2021/01/20 00:04:28;;;;;;;10.45;5.03;;;15.10;58.20;;;;;;6307594;22;19996;-76
2021/01/20 00:06:54;;;;;;;7.85;4.35;;;15.10;58.20;;;;;;6281091;22;20035;-76
2021/01/20 00:09:25;;;;;;;8.65;4.82;;;15.10;58.30;;;;;;6307575;22;20006;-76
2021/01/20 00:11:55;;;;;;;8.00;4.40;;;15.20;58.20;;;;;;6280175;22;20126;-76
2021/01/20 00:14:21;;;;;;;6.60;4.05;;;15.10;58.20;;;;;;6308246;22;20027;-76
2021/01/20 00:16:59;;;;;;;7.75;4.40;;;15.20;58.20;;;;;;6308429;22;20003;-77
2021/01/20 00:19:27;;;;;;;7.25;4.47;;;15.10;58.20;;;;;;6308222;22;19999;-76
2021/01/20 00:22:04;;;;;;;;;;;15.10;58.20;;;;;;6306822;22;20003;-77
2021/01/20 00:24:36;;;;;;;7.80;4.60;;;15.10;58.20;;;;;;6306449;22;20288;-76
2021/01/20 00:27:03;;;;;;;8.98;4.55;;;15.10;58.20;;;;;;6279747;22;20010;-77
2021/01/20 00:29:34;;;;;;;8.35;4.63;;;15.20;58.20;;;;;;6308064;22;20022;-76
2021/01/20 00:32:04;;;;;;;7.97;4.15;;;15.10;58.20;;;;;;6307614;22;19999;-76
2021/01/20 00:34:34;;;;;;;6.95;3.80;;;15.10;58.20;;;;;;6306366;22;20003;-76
2021/01/20 00:37:04;;;;;;;8.23;4.55;;;15.10;58.20;;;;;;6280237;22;20068;-76
2021/01/20 00:39:34;;;;;;;7.22;4.10;;;15.10;58.20;;;;;;6305847;22;20041;-76
2021/01/20 00:42:05;;;;;;;7.85;3.80;;;15.10;58.10;;;;;;6307115;22;19995;-76
2021/01/20 00:44:30;;;;;;;6.47;3.90;;;15.10;58.10;;;;;;6327944;22;20014;-76
2021/01/20 00:47:10;;;;;;;7.45;4.53;;;15.10;58.10;;;;;;6311614;22;20093;-76
2021/01/20 00:49:43;;;;;;;7.63;3.67;;;15.10;58.10;;;;;;6311925;22;20539;-76
2021/01/20 00:52:12;;;;;;;7.55;4.22;;;15.10;58.10;;;;;;6338207;22;19995;-76
2021/01/20 00:54:37;;;;;;;7.53;4.20;;;15.10;58.10;;;;;;6310158;22;19998;-76
2021/01/20 00:57:03;;;;;;;7.70;3.95;;;15.10;58.10;;;;;;6338641;22;20009;-76
2021/01/20 00:59:29;;;;;;;7.85;3.83;;;15.10;58.10;;;;;;6339274;22;20021;-76
2021/01/20 01:02:02;;;;;;;7.22;3.83;;;15.10;58.10;;;;;;6311708;22;20433;-75
2021/01/20 01:04:40;;;;;;;6.32;3.55;;;15.10;58.10;;;;;;6339094;22;20005;-74
2021/01/20 01:07:06;;;;;;;;;;;15.10;58.10;;;;;;6338876;22;20066;-76
2021/01/20 01:09:36;;;;;;;7.28;3.53;;;15.10;58.10;;;;;;6338235;22;19933;-76
2021/01/20 01:12:02;;;;;;;6.15;3.95;;;15.10;58.20;;;;;;6338443;22;20420;-75
2021/01/20 01:14:28;;;;;;;5.47;3.22;;;15.10;58.30;;;;;;6339047;22;20002;-75
2021/01/20 01:16:53;;;;;;;6.43;4.03;;;15.10;58.20;;;;;;6311606;22;20347;-75
2021/01/20 01:19:19;;;;;;;6.72;3.90;;;15.10;58.20;;;;;;6338888;22;20048;-75
2021/01/20 01:21:49;;;;;;;6.90;3.92;;;15.10;58.30;;;;;;6336555;22;20052;-76
2021/01/20 01:24:19;;;;;;;7.68;4.00;;;15.10;58.30;;;;;;6311182;22;20009;-75
2021/01/20 01:26:50;;;;;;;5.50;3.38;;;15.10;58.50;;;;;;6310771;22;20032;-76
2021/01/20 01:29:21;;;;;;;6.28;3.42;;;15.10;58.40;;;;;;6337225;22;20007;-75
2021/01/20 01:31:46;;;;;;;5.43;3.40;;;15.10;58.50;;;;;;6337226;22;19998;-75
2021/01/20 01:34:16;;;;;;;7.70;3.40;;;15.10;58.50;;;;;;6338911;22;19999;-75
2021/01/20 01:36:42;;;;;;;6.10;3.10;;;15.10;58.40;;;;;;6310420;22;20318;-75
2021/01/20 01:39:22;;;;;;;6.38;3.90;;;15.10;58.40;;;;;;6338707;22;19998;-75
2021/01/20 01:41:47;;;;;;;5.18;3.45;;;15.10;58.40;;;;;;6337728;22;20421;-75
2021/01/20 01:44:27;;;;;;;6.25;3.80;;;15.10;58.40;;;;;;6336537;22;20014;-76
2021/01/20 01:46:53;;;;;;;6.13;3.13;;;15.10;58.40;;;;;;6337371;22;20010;-76
2021/01/20 01:49:22;;;;;;;5.78;3.67;;;15.10;58.40;;;;;;6339004;22;20033;-75
2021/01/20 01:52:02;;;;;;;5.10;3.50;;;15.10;58.40;;;;;;6309656;22;20078;-76
2021/01/20 01:54:41;;;;;;;4.80;3.17;;;15.10;58.40;;;;;;6336063;22;20264;-75
2021/01/20 01:57:07;;;;;;;5.60;2.72;;;15.10;58.40;;;;;;6336945;22;20002;-75
2021/01/20 01:59:45;;;;;;;6.45;3.35;;;15.10;58.40;;;;;;6310903;22;20003;-76
2021/01/20 02:02:11;;;;;;;5.57;3.20;;;15.00;58.40;;;;;;6337954;22;19995;-75
2021/01/20 02:04:39;;;;;;;5.28;2.80;;;15.10;58.40;;;;;;6336968;22;20007;-75
2021/01/20 02:07:10;;;;;;;;;;;15.10;58.30;;;;;;6338675;22;20030;-75
2021/01/20 02:09:50;;;;;;;6.65;3.05;;;15.10;58.40;;;;;;6337751;22;20270;-75
2021/01/20 02:12:25;;;;;;;4.70;2.90;;;15.10;58.40;;;;;;6337938;22;19998;-75
2021/01/20 02:15:16;;;;;;;5.25;3.30;;;15.10;58.40;;;;;;6338608;22;20059;-76
2021/01/20 02:17:53;;;;;;;5.25;3.05;;;15.00;58.40;;;;;;6338912;22;19995;-75
2021/01/20 02:20:54;;;;;;;4.57;2.97;;;15.00;58.30;;;;;;6310463;22;19999;-76
2021/01/20 02:23:24;;;;;;;5.45;3.05;;;15.10;58.30;;;;;;6308447;22;20119;-75
2021/01/20 02:26:20;;;;;;;4.50;2.78;;;15.00;58.40;;;;;;6337661;22;20053;-76
2021/01/20 02:28:58;;;;;;;7.03;3.22;;;15.00;58.30;;;;;;6310868;22;20305;-76
2021/01/20 02:31:28;;;;;;;4.35;2.83;;;15.10;58.30;;;;;;6310618;22;20010;-75
2021/01/20 02:33:59;;;;;;;5.43;2.72;;;15.00;58.40;;;;;;6338610;22;20003;-76
2021/01/20 02:36:30;;;;;;;6.20;3.00;;;15.10;58.40;;;;;;6310500;22;20007;-75
2021/01/20 02:39:02;;;;;;;5.68;3.40;;;15.00;58.30;;;;;;6338034;22;19995;-75
2021/01/20 02:41:30;;;;;;;4.70;2.95;;;15.00;58.30;;;;;;6337766;22;20052;-76
2021/01/20 02:44:00;;;;;;;4.68;2.95;;;15.00;58.30;;;;;;6310310;22;20093;-77
2021/01/20 02:46:34;;;;;;;4.63;2.70;;;15.00;58.30;;;;;;6310532;22;20002;-76
2021/01/20 02:49:00;;;;;;;6.72;3.38;;;15.00;58.30;;;;;;6338570;22;20005;-75
2021/01/20 02:51:36;;;;;;;4.13;2.35;;;15.00;58.30;;;;;;6337641;22;20432;-75
2021/01/20 02:54:07;;;;;;;4.72;2.95;;;15.00;58.30;;;;;;6311183;22;20351;-75
2021/01/20 02:56:42;;;;;;;4.25;2.90;;;15.00;58.30;;;;;;6339916;22;20056;-75
2021/01/20 02:59:13;;;;;;;4.93;3.10;;;15.00;58.30;;;;;;6312880;22;20060;-75
2021/01/20 03:01:50;;;;;;;4.47;2.60;;;15.00;58.30;;;;;;6312324;22;20034;-75
2021/01/20 03:04:17;;;;;;;4.68;2.78;;;15.00;58.30;;;;;;6312798;22;20010;-75
2021/01/20 03:06:48;;;;;;;3.60;2.45;;;15.00;58.20;;;;;;6337551;22;20007;-76
2021/01/20 03:09:19;;;;;;;4.38;2.53;;;15.00;58.20;;;;;;6340096;22;20328;-75
2021/01/20 03:11:56;;;;;;;5.93;2.80;;;15.00;58.30;;;;;;6311694;22;20007;-76
2021/01/20 03:14:24;;;;;;;5.75;2.92;;;15.00;58.30;;;;;;6312971;22;20034;-76
2021/01/20 03:16:54;;;;;;;4.13;2.80;;;15.00;58.20;;;;;;6340213;22;19998;-75
2021/01/20 03:19:31;;;;;;;3.63;2.55;;;15.00;58.20;;;;;;6340225;22;19999;-75
2021/01/20 03:22:11;;;;;;;4.15;2.35;;;15.00;58.20;;;;;;6339596;22;20044;-76
2021/01/20 03:24:41;;;;;;;5.57;2.95;;;15.00;58.20;;;;;;6338669;22;20424;-75
2021/01/20 03:27:09;;;;;;;4.47;2.80;;;15.00;58.20;;;;;;6311304;22;20410;-76
2021/01/20 03:29:43;;;;;;;4.65;2.85;;;15.00;58.20;;;;;;6340200;22;20002;-75
2021/01/20 03:32:11;;;;;;;3.38;2.10;;;15.00;58.20;;;;;;6312625;22;19999;-75
2021/01/20 03:34:44;;;;;;;3.75;2.58;;;15.00;58.20;;;;;;6340118;22;20021;-75
2021/01/20 03:37:14;;;;;;;5.10;2.92;;;14.90;58.20;;;;;;6339171;22;20013;-75
2021/01/20 03:39:44;;;;;;;4.13;2.42;;;15.00;58.20;;;;;;6339931;22;20048;-76
2021/01/20 03:42:13;;;;;;;4.80;2.92;;;15.00;58.20;;;;;;6337118;22;20003;-75
2021/01/20 03:44:43;;;;;;;3.92;2.30;;;15.00;58.20;;;;;;6340006;22;20412;-75
2021/01/20 03:47:20;;;;;;;3.97;2.20;;;15.00;58.20;;;;;;6339373;22;20014;-75
2021/01/20 03:49:49;;;;;;;4.38;2.50;;;15.00;58.20;;;;;;6312254;22;20007;-75
2021/01/20 03:52:25;;;;;;;4.82;2.58;;;15.00;58.20;;;;;;6338613;22;19999;-75
2021/01/20 03:54:56;;;;;;;5.68;2.20;;;15.00;58.20;;;;;;6312339;22;20329;-75
2021/01/20 03:57:26;;;;;;;4.70;2.53;;;15.00;58.20;;;;;;6339009;22;20425;-76
2021/01/20 03:59:57;;;;;;;5.10;2.97;;;15.00;58.20;;;;;;6312079;22;20052;-75
2021/01/20 04:02:23;;;;;;;3.15;2.33;;;15.00;58.20;;;;;;6339853;22;19999;-75
2021/01/20 04:04:51;;;;;;;4.60;2.60;;;15.00;58.10;;;;;;6338926;22;20006;-75
2021/01/20 04:07:21;;;;;;;3.80;2.35;;;15.00;58.20;;;;;;6311486;22;20003;-75
2021/01/20 04:09:54;;;;;;;3.58;2.45;;;15.00;58.20;;;;;;6338999;22;19999;-76
2021/01/20 04:12:24;;;;;;;4.50;2.70;;;15.00;58.10;;;;;;6339007;22;20061;-75
2021/01/20 04:14:54;;;;;;;3.90;2.30;;;15.00;58.10;;;;;;6311879;22;20033;-75
2021/01/20 04:17:22;;;;;;;4.00;2.30;;;15.00;58.10;;;;;;6311356;22;20002;-75
2021/01/20 04:19:53;;;;;;;2.75;1.90;;;15.00;58.10;;;;;;6311852;22;20007;-75
2021/01/20 04:22:18;;;;;;;3.35;2.05;;;15.00;58.10;;;;;;6338519;22;20037;-75
2021/01/20 04:24:48;;;;;;;4.68;2.25;;;15.00;58.10;;;;;;6337861;22;20348;-75
2021/01/20 04:27:17;;;;;;;3.90;2.25;;;15.00;58.10;;;;;;6311921;22;20009;-75
2021/01/20 04:29:47;;;;;;;4.30;2.13;;;14.90;58.20;;;;;;6339176;22;20075;-75
2021/01/20 04:32:18;;;;;;;4.43;2.30;;;15.00;58.10;;;;;;6339536;22;19998;-79
2021/01/20 04:34:44;;;;;;;3.45;1.92;;;15.00;58.10;;;;;;6311144;22;20011;-76
2021/01/20 04:37:20;;;;;;;4.07;2.25;;;15.00;58.20;;;;;;6310976;22;19999;-76
2021/01/20 04:39:51;;;;;;;2.95;2.03;;;14.90;58.20;;;;;;6338966;22;19995;-75
2021/01/20 04:42:31;;;;;;;3.85;2.47;;;15.00;58.30;;;;;;6338530;22;19998;-75
2021/01/20 04:45:12;;;;;;;3.22;1.80;;;15.00;58.20;;;;;;6336743;22;20015;-75
2021/01/20 04:47:39;;;;;;;3.75;2.10;;;15.00;58.20;;;;;;6338936;22;20011;-75
2021/01/20 04:50:12;;;;;;;3.70;2.30;;;14.90;58.30;;;;;;6339255;22;20417;-75
2021/01/20 04:52:45;;;;;;;3.17;2.10;;;14.90;58.30;;;;;;6336407;22;19995;-75
2021/01/20 04:55:25;;;;;;;2.97;1.83;;;15.00;58.30;;;;;;6335045;22;20090;-75
2021/01/20 04:57:56;;;;;;;3.20;2.03;;;14.90;58.30;;;;;;6338325;22;20023;-75
2021/01/20 05:00:37;;;;;;;2.50;1.83;;;15.00;58.30;;;;;;6309724;22;20007;-76
2021/01/20 05:03:06;;;;;;;3.75;2.05;;;15.00;58.20;;;;;;6335907;22;20037;-75
2021/01/20 05:05:35;;;;;;;4.47;2.60;;;14.90;58.20;;;;;;6311042;22;20455;-75
2021/01/20 05:08:05;;;;;;;4.07;1.95;;;15.00;58.20;;;;;;6337462;22;20017;-75
2021/01/20 05:10:36;;;;;;;3.30;2.20;;;15.00;58.20;;;;;;6310988;22;20362;-75
2021/01/20 05:13:01;;;;;;;5.07;2.20;;;15.00;58.20;;;;;;6337882;22;19999;-75
2021/01/20 05:15:35;;;;;;;4.93;2.38;;;14.90;58.20;;;;;;6338415;22;20029;-75
2021/01/20 05:18:09;;;;;;;2.75;1.60;;;15.00;58.20;;;;;;6336707;22;20006;-76
2021/01/20 05:20:47;;;;;;;5.78;2.40;;;14.90;58.30;;;;;;6335924;22;20456;-75
2021/01/20 05:23:13;;;;;;;2.30;1.60;;;14.90;58.30;;;;;;6336744;22;20587;-75
2021/01/20 05:25:58;;;;;;;4.65;2.25;;;14.90;58.30;;;;;;6337186;22;20027;-75
2021/01/20 05:28:36;;;;;;;3.30;1.73;;;14.90;58.30;;;;;;6336581;22;20068;-75
2021/01/20 05:34:04;;;;;;;3.05;1.90;;;14.90;58.30;;;;;;6321715;22;20407;-75
2021/01/20 05:36:43;;;;;;;4.57;1.90;;;14.90;58.30;;;;;;6337868;22;20038;-75
2021/01/20 05:39:18;;;;;;;3.45;2.03;;;14.90;58.30;;;;;;6336854;22;20081;-74
2021/01/20 05:41:59;;;;;;;3.17;1.98;;;14.90;58.30;;;;;;6309883;22;19999;-75
2021/01/20 05:44:28;;;;;;;2.70;1.80;;;14.90;58.30;;;;;;6338814;22;20116;-75
2021/01/20 05:46:54;;;;;;;3.03;1.80;;;14.90;58.30;;;;;;6362828;22;19999;-75
2021/01/20 05:49:28;;;;;;;2.20;1.40;;;14.90;58.30;;;;;;6338373;22;20017;-75
2021/01/20 05:51:55;;;;;;;2.22;1.73;;;14.90;58.30;;;;;;6336041;22;20002;-75
2021/01/20 05:54:35;;;;;;;3.92;1.90;;;14.90;58.30;;;;;;6338063;22;19995;-74
2021/01/20 05:57:21;;;;;;;3.55;1.75;;;14.90;58.30;;;;;;6337747;22;19999;-74
2021/01/20 06:00:12;;;;;;;2.90;2.13;;;14.90;58.30;;;;;;6337911;22;20009;-74
2021/01/20 06:02:43;;;;;;;2.60;1.95;;;14.90;58.30;;;;;;6336323;22;20011;-73
2021/01/20 06:05:13;;;;;;;2.67;1.67;;;14.90;58.40;;;;;;6337885;22;20003;-73
2021/01/20 06:07:39;;;;;;;4.03;2.00;;;14.90;58.50;;;;;;6337806;22;20031;-74
2021/01/20 06:10:19;;;;;;;1.92;1.50;;;14.90;58.50;;;;;;6362817;22;20003;-73
2021/01/20 06:12:50;;;;;;;2.70;1.70;;;14.90;58.60;;;;;;6336362;22;20022;-73
2021/01/20 06:15:20;;;;;;;2.70;1.58;;;14.90;58.60;;;;;;6336480;22;20026;-73
2021/01/20 06:17:56;;;;;;;2.72;1.50;;;14.90;58.60;;;;;;6338810;22;20002;-74
2021/01/20 06:20:28;;;;;;;3.17;2.10;;;14.90;58.70;;;;;;6336842;22;20009;-73
2021/01/20 06:23:08;;;;;;;2.65;1.50;;;14.80;58.60;;;;;;6337472;22;20006;-73
2021/01/20 06:25:50;;;;;;;2.83;1.77;;;14.90;58.60;;;;;;6362775;22;20014;-73
2021/01/20 06:28:17;;;;;;;3.67;1.95;;;14.90;58.70;;;;;;6362315;22;20060;-73
2021/01/20 06:31:01;;;;;;;2.78;1.90;;;14.90;58.70;;;;;;6336558;22;19999;-73
2021/01/20 06:33:30;;;;;;;2.60;1.70;;;14.90;58.70;;;;;;6335728;22;20007;-73
2021/01/20 06:35:59;;;;;;;2.95;2.05;;;14.90;58.80;;;;;;6337362;22;20002;-75
2021/01/20 06:38:27;;;;;;;2.38;1.50;;;14.80;58.80;;;;;;6281107;22;20010;-74
2021/01/20 06:41:10;;;;;;;;;;;;;;;;;;;;;
2021/01/20 06:43:45;;;;;;;2.38;1.75;;;14.90;58.80;;;;;;6338005;22;20078;-73
2021/01/20 06:46:20;;;;;;;2.95;1.60;;;14.90;58.80;;;;;;6310100;22;20378;-73
2021/01/20 06:49:11;;;;;;;2.65;1.80;;;14.90;58.80;;;;;;6309686;22;20003;-73
2021/01/20 06:51:38;;;;;;;3.58;2.17;;;14.80;58.80;;;;;;6336309;22;20425;-74
2021/01/20 06:54:10;;;;;;;2.25;1.25;;;14.80;58.80;;;;;;6337261;22;20110;-74
2021/01/20 06:56:45;;;;;;;2.22;1.55;;;14.80;58.90;;;;;;6336147;22;20063;-73
2021/01/20 06:59:30;;;;;;;2.60;1.90;;;14.80;58.80;;;;;;6338133;22;19991;-73
2021/01/20 07:02:02;;;;;;;2.75;1.80;;;14.90;58.90;;;;;;6338361;22;20014;-73
2021/01/20 07:04:43;;;;;;;2.38;1.60;;;14.90;58.90;;;;;;6308680;22;19991;-73
2021/01/20 07:07:13;;;;;;;3.00;1.90;;;14.80;58.90;;;;;;6337321;22;20034;-73
2021/01/20 07:10:05;;;;;;;3.22;1.60;;;14.80;58.90;;;;;;6338013;22;20316;-73
2021/01/20 07:12:58;;;;;;;3.50;2.17;;;14.90;58.90;;;;;;6326203;22;20026;-73
2021/01/20 07:15:30;;;;;;;2.53;1.50;;;14.80;58.90;;;;;;6308870;22;20014;-74
2021/01/20 07:17:59;;;;;;;1.75;1.35;;;14.90;58.90;;;;;;6308824;22;20002;-73
2021/01/20 07:20:28;;;;;;;2.47;1.63;;;14.80;58.90;;;;;;6335518;22;20056;-73
2021/01/20 07:23:04;;;;;;;2.80;1.63;;;14.90;58.90;;;;;;6337480;22;19995;-73
2021/01/20 07:25:37;;;;;;;3.63;1.95;;;14.90;58.90;;;;;;6310099;22;20003;-72
2021/01/20 07:28:03;;;;;;;3.08;1.88;;;14.80;58.90;;;;;;6309823;22;20129;-73
2021/01/20 07:30:33;;;;;;;2.70;1.60;;;14.80;58.90;;;;;;6336276;22;19998;-73
2021/01/20 07:33:20;;;;;;;2.25;1.45;;;14.90;58.90;;;;;;6337887;22;20015;-73
2021/01/20 07:35:49;;;;;;;2.90;1.57;;;14.90;58.90;;;;;;6362102;22;20010;-74
2021/01/20 07:38:19;;;;;;;;;;;14.90;58.90;;;;;;6337448;22;19999;-74
2021/01/20 07:40:50;;;;;;;1.88;1.42;;;14.90;58.90;;;;;;6363386;22;19898;-75
2021/01/20 07:43:26;;;;;;;4.43;2.10;;;14.90;58.90;;;;;;6339211;22;19999;-74
2021/01/20 07:45:56;;;;;;;2.15;1.60;;;14.90;58.90;;;;;;6337431;22;20006;-74
2021/01/20 07:48:38;;;;;;;1.63;1.17;;;14.90;58.90;;;;;;6339777;22;20018;-74
2021/01/20 07:51:10;;;;;;;3.35;2.15;;;14.90;58.90;;;;;;6338559;22;20030;-74
2021/01/20 07:53:35;;;;;;;2.17;1.40;;;14.90;58.90;;;;;;6337773;22;20036;-73
2021/01/20 07:56:09;;;;;;;2.00;1.40;;;14.90;58.90;;;;;;6310822;22;20455;-73
2021/01/20 07:58:37;;;;;;;2.47;1.58;;;14.90;58.90;;;;;;6338865;22;20002;-74
2021/01/20 08:01:07;;;;;;;;;;;14.90;58.90;;;;;;6339394;22;19995;-74
2021/01/20 08:03:39;;;;;;;2.00;1.27;;;14.90;58.90;;;;;;6339479;22;20224;-74
2021/01/20 08:06:10;;;;;;;2.53;1.60;;;14.90;58.90;;;;;;6336198;22;20394;-74
2021/01/20 08:09:08;;;;;;;2.63;1.63;;;14.90;58.80;;;;;;6335002;22;20030;-75
2021/01/20 08:11:48;;;;;;;2.25;1.40;;;14.90;58.80;;;;;;6284160;22;19999;-74
2021/01/20 08:14:17;;;;;;;2.60;1.55;;;14.90;58.80;;;;;;6336893;22;20007;-74
2021/01/20 08:16:46;;;;;;;2.63;1.52;;;15.00;58.80;;;;;;6338116;22;19999;-74
2021/01/20 08:19:35;;;;;;;3.13;1.92;;;15.00;58.80;;;;;;6336791;22;20009;-74
2021/01/20 08:22:14;;;;;;;1.48;1.17;;;14.90;58.80;;;;;;6336910;22;20051;-74
2021/01/20 08:24:51;;;;;;;4.38;1.70;;;15.00;58.80;;;;;;6337194;22;20025;-74
2021/01/20 08:27:31;;;;;;;2.92;1.80;;;15.00;58.80;;;;;;6338460;22;20003;-75
2021/01/20 08:29:58;;;;;;;2.13;1.50;;;15.00;58.80;;;;;;6337122;22;20098;-75
2021/01/20 08:32:24;;;;;;;1.80;1.42;;;15.00;58.80;;;;;;6335994;22;20120;-76
2021/01/20 08:34:55;;;;;;;2.80;1.48;;;14.90;58.80;;;;;;6339366;22;20033;-75
2021/01/20 08:37:38;;;;;;;2.00;1.38;;;15.00;58.80;;;;;;6362990;22;20404;-76
2021/01/20 16:41:37;;;;;;;2.72;0.80;;;15.30;59.80;;;;;;6325761;22;20076;-75
2021/01/20 16:44:07;;;;;;;1.30;0.68;;;15.30;59.80;;;;;;6294751;22;20026;-75
2021/01/20 16:46:37;;;;;;;1.20;0.90;;;15.30;59.80;;;;;;6308991;22;20007;-76
2021/01/20 16:49:03;;;;;;;2.45;0.90;;;15.20;59.90;;;;;;6337310;22;20010;-75
2021/01/20 16:51:33;;;;;;;1.05;0.68;;;15.20;59.80;;;;;;6310955;22;20003;-75
2021/01/20 16:54:03;;;;;;;1.65;0.85;;;15.20;59.90;;;;;;6311201;22;19999;-76
2021/01/20 16:56:32;;;;;;;2.20;1.00;;;15.20;59.80;;;;;;6339109;22;20002;-73
2021/01/20 16:59:11;;;;;;;2.70;1.02;;;15.20;59.90;;;;;;6338436;22;20002;-75
2021/01/20 17:01:42;;;;;;;1.98;0.70;;;15.20;59.90;;;;;;6337275;22;20079;-75
2021/01/20 17:04:25;;;;;;;0.70;0.65;;;15.20;59.90;;;;;;6310839;22;20014;-76
2021/01/20 17:07:01;;;;;;;1.05;0.70;;;15.20;59.90;;;;;;6334816;22;20007;-76
2021/01/20 17:09:31;;;;;;;3.42;0.60;;;15.20;59.90;;;;;;6309042;22;20425;-76
2021/01/20 17:11:59;;;;;;;1.13;0.80;;;15.20;59.90;;;;;;6337935;22;19999;-75
2021/01/20 17:14:30;;;;;;;1.00;0.60;;;15.20;59.90;;;;;;6338850;22;19998;-76
2021/01/20 17:16:55;;;;;;;1.35;0.98;;;15.20;59.90;;;;;;6337184;22;20007;-75
2021/01/20 17:19:21;;;;;;;1.20;0.90;;;15.20;59.90;;;;;;6338222;22;20662;-75
2021/01/20 17:22:01;;;;;;;1.90;0.88;;;15.20;59.90;;;;;;6339061;22;20172;-74
2021/01/20 17:24:32;;;;;;;1.88;0.80;;;15.20;59.90;;;;;;6337038;22;20002;-75
2021/01/20 17:27:03;;;;;;;1.27;0.75;;;15.20;59.90;;;;;;6309978;22;20021;-75
2021/01/20 17:29:39;;;;;;;1.58;0.80;;;15.20;59.90;;;;;;6338803;22;20002;-76
2021/01/20 17:32:05;;;;;;;1.05;0.82;;;15.20;59.90;;;;;;6338979;22;20015;-75
2021/01/20 17:34:45;;;;;;;1.30;0.88;;;15.20;59.90;;;;;;6336623;22;20006;-74
2021/01/20 17:37:11;;;;;;;1.40;0.80;;;15.20;59.90;;;;;;6337526;22;20080;-77
2021/01/20 17:39:37;;;;;;;0.88;0.70;;;15.20;59.90;;;;;;6336544;22;20351;-75
2021/01/20 17:42:09;;;;;;;1.45;0.95;;;15.20;59.80;;;;;;6310072;22;20055;-75
2021/01/20 17:44:37;;;;;;;0.90;0.60;;;15.20;59.90;;;;;;6310554;22;19999;-75
2021/01/20 17:47:07;;;;;;;1.20;0.60;;;15.20;59.90;;;;;;6307412;22;20011;-76
2021/01/20 17:49:47;;;;;;;1.85;0.80;;;15.20;60.00;;;;;;6305414;22;20101;-75
2021/01/20 17:52:25;;;;;;;0.80;0.70;;;15.20;60.00;;;;;;6307102;22;20000;-75
2021/01/20 17:55:05;;;;;;;1.23;0.70;;;15.20;60.00;;;;;;6279328;22;20325;-75
2021/01/20 17:57:36;;;;;;;1.02;0.57;;;15.10;60.00;;;;;;6306655;22;20057;-75
2021/01/20 18:00:06;;;;;;;1.75;0.85;;;15.20;60.00;;;;;;6307273;22;20345;-75
2021/01/20 18:02:37;;;;;;;2.83;0.90;;;15.10;60.00;;;;;;6302201;22;20006;-76
2021/01/20 18:05:08;;;;;;;2.80;0.85;;;15.20;60.00;;;;;;6279458;22;20673;-75
2021/01/20 18:07:38;;;;;;;2.05;0.95;;;15.10;60.00;;;;;;6307231;22;20029;-75
2021/01/20 18:10:09;;;;;;;3.72;0.98;;;15.10;60.00;;;;;;6305779;22;20409;-75
2021/01/20 18:12:40;;;;;;;1.88;0.80;;;15.20;60.00;;;;;;6279531;22;20011;-75
2021/01/20 18:15:11;;;;;;;1.20;0.80;;;15.10;60.00;;;;;;6305644;22;20360;-75
2021/01/20 18:17:45;;;;;;;2.20;0.90;;;15.20;60.00;;;;;;6307330;22;20002;-75
2021/01/20 18:20:16;;;;;;;1.40;0.90;;;15.10;60.00;;;;;;6279951;22;20000;-76
2021/01/20 18:22:45;;;;;;;3.42;1.02;;;15.10;60.00;;;;;;6305495;22;20003;-76
2021/01/20 18:25:11;;;;;;;1.00;0.80;;;15.10;60.00;;;;;;6305242;22;20294;-75
2021/01/20 18:27:38;;;;;;;2.03;1.20;;;15.10;60.00;;;;;;6304991;22;20003;-75
2021/01/20 18:30:21;;;;;;;2.70;0.80;;;15.10;60.00;;;;;;6306307;22;20325;-75
2021/01/20 18:32:52;;;;;;;1.92;0.88;;;15.10;60.00;;;;;;6279405;22;20418;-75
2021/01/20 18:35:26;;;;;;;1.15;0.80;;;15.20;60.00;;;;;;6277847;22;20596;-76
2021/01/20 18:38:05;;;;;;;3.45;1.00;;;15.10;60.00;;;;;;6305821;22;20078;-76
2021/01/20 18:40:38;;;;;;;1.73;1.00;;;15.10;60.00;;;;;;6305931;22;20053;-76
2021/01/20 18:43:09;;;;;;;2.08;0.80;;;15.10;60.00;;;;;;6298139;22;20070;-75
2021/01/20 18:45:40;;;;;;;2.15;0.88;;;15.10;60.00;;;;;;6290545;22;20042;-75
2021/01/20 18:48:11;;;;;;;1.48;0.93;;;15.10;59.90;;;;;;6336377;22;19998;-75
2021/01/20 18:50:42;;;;;;;2.10;1.17;;;15.10;60.00;;;;;;6338048;22;20021;-75
2021/01/20 18:53:22;;;;;;;5.32;1.10;;;15.10;59.90;;;;;;6338133;22;20014;-75
2021/01/20 18:55:52;;;;;;;1.08;0.88;;;15.10;59.90;;;;;;6336323;22;20091;-75
2021/01/20 18:58:19;;;;;;;1.77;0.80;;;15.10;59.90;;;;;;6338234;22;20068;-76
2021/01/20 19:00:50;;;;;;;1.17;0.88;;;15.10;59.80;;;;;;6337338;22;20095;-75
2021/01/20 19:03:28;;;;;;;2.15;1.25;;;15.10;59.80;;;;;;6336533;22;20005;-75
2021/01/20 19:05:53;;;;;;;2.20;1.08;;;15.10;59.80;;;;;;6336508;22;19999;-74
2021/01/20 19:08:23;;;;;;;1.38;0.90;;;15.10;59.80;;;;;;6336760;22;20446;-75
2021/01/20 19:10:55;;;;;;;1.67;0.80;;;15.10;59.80;;;;;;6336549;22;20049;-75
2021/01/20 19:13:35;;;;;;;2.47;1.13;;;15.10;59.80;;;;;;6336074;22;19999;-75
2021/01/20 19:16:02;;;;;;;1.02;0.80;;;15.10;59.80;;;;;;6338120;22;20021;-74
2021/01/20 19:18:32;;;;;;;3.97;1.00;;;15.10;59.80;;;;;;6338044;22;20003;-75
2021/01/20 19:21:03;;;;;;;1.70;1.08;;;15.10;59.90;;;;;;6336107;22;20006;-75
2021/01/20 19:23:33;;;;;;;5.15;1.23;;;15.10;59.80;;;;;;6336047;22;20052;-75
2021/01/20 19:26:05;;;;;;;1.48;0.80;;;15.10;59.80;;;;;;6334861;22;20011;-76
2021/01/20 19:28:36;;;;;;;1.25;0.90;;;15.10;59.80;;;;;;6335606;22;20006;-75
2021/01/20 19:31:08;;;;;;;1.92;1.08;;;15.10;59.80;;;;;;6335490;22;20022;-75
2021/01/20 19:33:33;;;;;;;1.42;1.00;;;15.10;59.70;;;;;;6333811;22;20007;-76
2021/01/20 19:35:59;;;;;;;2.72;1.08;;;15.10;59.70;;;;;;6335867;22;20137;-75
2021/01/20 19:38:25;;;;;;;2.85;1.30;;;15.10;59.70;;;;;;6337390;22;20006;-75
2021/01/20 19:40:53;;;;;;;1.23;0.80;;;15.00;59.70;;;;;;6336593;22;20156;-77
2021/01/20 19:43:24;;;;;;;1.40;1.08;;;15.00;59.60;;;;;;6339032;22;20078;-76
2021/01/20 19:45:58;;;;;;;3.30;1.25;;;15.00;59.70;;;;;;6331090;22;20019;-75
2021/01/20 19:48:29;;;;;;;3.00;1.33;;;15.10;59.60;;;;;;6338083;22;20013;-75
2021/01/20 19:50:54;;;;;;;2.55;1.13;;;15.10;59.50;;;;;;6311562;22;19995;-75
2021/01/20 19:53:29;;;;;;;2.53;0.80;;;15.00;59.60;;;;;;6337405;22;20071;-74
2021/01/20 19:55:59;;;;;;;1.20;0.93;;;15.10;59.60;;;;;;6338421;22;20009;-75
2021/01/20 19:58:25;;;;;;;2.58;1.30;;;15.00;59.60;;;;;;6339084;22;20118;-75
2021/01/20 20:00:51;;;;;;;2.10;1.00;;;15.00;59.60;;;;;;6337035;22;20104;-75
2021/01/20 20:03:17;;;;;;;2.33;1.20;;;15.10;59.60;;;;;;6311065;22;20031;-76
2021/01/20 20:05:46;;;;;;;2.40;1.33;;;15.10;59.60;;;;;;6337678;22;20010;-74
2021/01/20 20:08:15;;;;;;;2.30;1.20;;;15.10;59.60;;;;;;6337963;22;20053;-74
2021/01/20 20:10:46;;;;;;;1.25;0.98;;;15.00;59.60;;;;;;6310553;22;20006;-75
2021/01/20 20:13:18;;;;;;;2.97;1.30;;;15.00;59.60;;;;;;6338147;22;20007;-75
2021/01/20 20:15:53;;;;;;;3.70;1.58;;;15.00;59.60;;;;;;6339198;22;20428;-75
2021/01/20 20:18:19;;;;;;;4.55;1.50;;;15.00;59.50;;;;;;6311771;22;20003;-76
2021/01/20 20:20:48;;;;;;;3.00;1.50;;;15.00;59.50;;;;;;6337758;22;20316;-75
2021/01/20 20:23:20;;;;;;;2.85;1.80;;;15.00;59.60;;;;;;6336858;22;20026;-74
2021/01/20 20:25:50;;;;;;;4.18;1.90;;;15.00;59.50;;;;;;6311511;22;20003;-75
2021/01/20 20:28:19;;;;;;;4.07;1.60;;;15.00;59.60;;;;;;6339116;22;20074;-75
2021/01/20 20:30:48;;;;;;;2.78;1.50;;;15.00;59.60;;;;;;6310925;22;19994;-75
2021/01/20 20:33:25;;;;;;;4.28;2.00;;;15.00;59.60;;;;;;6337186;22;20068;-75
2021/01/20 20:35:53;;;;;;;3.50;1.80;;;15.00;59.60;;;;;;6311259;22;20003;-75
2021/01/20 20:38:20;;;;;;;4.10;2.22;;;15.00;59.60;;;;;;6311237;22;20034;-75
2021/01/20 20:40:50;;;;;;;4.28;2.15;;;15.00;59.60;;;;;;6311521;22;20026;-75
2021/01/20 20:43:16;;;;;;;4.88;2.40;;;15.00;59.60;;;;;;6339440;22;20006;-74
2021/01/20 20:45:42;;;;;;;6.10;2.58;;;15.00;59.60;;;;;;6311325;22;20353;-75
2021/01/20 20:48:20;;;;;;;6.13;2.47;;;15.00;59.60;;;;;;6309321;22;20018;-76
2021/01/20 20:50:55;;;;;;;4.43;2.70;;;15.00;59.50;;;;;;6338137;22;19995;-75
2021/01/20 20:53:26;;;;;;;5.45;3.25;;;15.00;59.50;;;;;;6338864;22;20006;-75
2021/01/20 20:56:02;;;;;;;6.32;3.40;;;15.00;59.60;;;;;;6337059;22;19998;-74
2021/01/20 20:58:33;;;;;;;4.97;2.92;;;15.00;59.60;;;;;;6311119;22;20007;-74
2021/01/20 21:01:04;;;;;;;7.90;3.42;;;15.00;59.60;;;;;;6337203;22;19994;-75
2021/01/20 21:03:36;;;;;;;8.60;3.85;;;14.90;59.50;;;;;;6334779;22;20003;-75
2021/01/20 21:06:10;;;;;;;8.88;4.15;;;15.00;59.60;;;;;;6334047;22;20424;-75
2021/01/20 21:08:41;;;;;;;8.80;4.43;;;15.00;59.50;;;;;;6334466;22;20325;-75
2021/01/20 21:11:07;;;;;;;8.88;4.65;;;15.00;59.50;;;;;;6336442;22;20029;-75
2021/01/20 21:13:41;;;;;;;12.13;5.53;;;15.00;59.60;;;;;;6335937;22;19995;-75
2021/01/20 21:16:07;;;;;;;11.65;4.90;;;15.00;59.60;;;;;;6310560;22;20030;-74
2021/01/20 21:18:44;;;;;;;12.95;5.75;;;15.00;59.50;;;;;;6338266;22;19995;-75